Strona główna
METAR-TAF:

METAR-TAF

Lotnisko :

Náměšť nad Oslavou, Czechy

Szerokość geograficzna: 49-09-57N, Długość geograficzna: 16-07-30E, wysokość: 472 m

Aktualna obserwacja pogody

Raport powstał 1 godzina i 0 minut temu, godzina 09:00 UTC
Wiatr 1 kt z kierunków zmiennych
Temperatura 28°C
Wilgotność 32%
Ciśnienie 1020 hPa
Widzialność 10 km lub więcej
Brak chmur poniżej 1500 m i brak chmur cumulonimbus

METAR: LKNA 180900Z VRB01KT CAVOK 28/10 Q1020 NOSIG RMK BLU BLU

czas: 12:00 (10:00 UTC)

Prognoza

Raport powstał 5 godziny i 0 minut temu, godzina 05:00 UTC
Prognoza ważna od 18 godzina 06 UTC do 19 godzina 06 UTC
Wiatr 8 kt od północno-północny zachód
Widzialność 10 km lub więcej
Brak chmur poniżej 1500 m i brak chmur cumulonimbus
Stopniowe zmiany
od 18 godzina 13 UTC do 18 godzina 15 UTC
Wiatr 8 kt od wschodnio-południowy wschód
Stopniowe zmiany
od 18 godzina 17 UTC do 18 godzina 19 UTC
Wiatr 2 kt z kierunków zmiennych

TAF: LKNA 180500Z 1806/1906 33008KT CAVOK BECMG 1813/1815 12008KT BECMG 1817/1819 VRB02KT

Obserwacja i prognoza pogody dla ponad 4000 lotnisk (raport METAR i TAF).

Dostępne stacje oznaczono żółtymi i czerwonymi punktami na mapie.

Najedź kursorem aby zobaczyć nazwę stacji.

Kliknij aby zobaczyć obserwacje i prognozy pogody.

Aby zmienić mapę: kliknij na zielony przycisk z czarnym krzyżykiem, aby powiększyć; na zielony przycisk z myślnikiem, aby pomniejszyć; na zielone strzałki, aby przejść do map sąsiednich.


METAR-TAF: